Time;durP1;ratioP1;P1;durP2;ratioP2;P2;SDS_P1;SDS_P2;PMS_P1;PMS_P2;Temp;Humidity;BMP_temperature;BMP_pressure;BME280_temperature;BME280_humidity;BME280_pressure;Samples;Min_cycle;Max_cycle;Signal;HPM_P1;HPM_P2
2023/04/26 00:00:13;;;;;;;;;;;;;;;7.35;78.93;99688.02;215891;1256;61377;-74
2023/04/26 00:05:07;;;;;;;;;;;;;;;7.34;78.87;99686.44;215867;1254;67591;-74
2023/04/26 00:10:07;;;;;;;;;;;;;;;7.29;78.93;99689.13;216471;1259;61253;-74
2023/04/26 00:15:13;;;;;;;;;;;;;;;7.27;79.07;99688.07;215716;1256;74574;-74
2023/04/26 00:20:09;;;;;;;;;;;;;;;7.27;79.21;99692.55;215977;1253;61482;-74
2023/04/26 00:25:03;;;;;;;;;;;;;;;7.27;79.35;99693.77;216016;1257;61292;-74
2023/04/26 00:29:56;;;;;;;;;;;;;;;7.29;79.35;99701.38;215857;1253;66773;-73
2023/04/26 00:34:49;;;;;;;;;;;;;;;7.29;79.45;99698.61;215757;1256;61298;-74
2023/04/26 00:39:42;;;;;;;;;;;;;;;7.29;79.67;99702.23;215936;1257;75060;-74
2023/04/26 00:44:35;;;;;;;;;;;;;;;7.26;79.56;99711.85;215772;1254;61801;-74
2023/04/26 00:49:28;;;;;;;;;;;;;;;7.21;79.51;99711.77;215822;1253;61694;-74
2023/04/26 00:54:21;;;;;;;;;;;;;;;7.19;79.69;99714.69;215851;1253;61225;-74
2023/04/26 00:59:14;;;;;;;;;;;;;;;7.18;79.70;99720.52;215798;1254;61388;-74
2023/04/26 01:04:11;;;;;;;;;;;;;;;7.14;79.60;99727.88;215940;1254;61247;-74
2023/04/26 01:09:07;;;;;;;;;;;;;;;7.11;79.60;99738.35;215816;1254;72361;-74
2023/04/26 01:14:00;;;;;;;;;;;;;;;7.09;79.64;99753.13;215851;1254;61251;-74
2023/04/26 01:18:53;;;;;;;;;;;;;;;7.06;79.54;99759.29;215830;1254;66045;-73
2023/04/26 01:23:46;;;;;;;;;;;;;;;6.97;79.23;99758.29;215835;1253;61285;-74
2023/04/26 01:28:40;;;;;;;;;;;;;;;6.93;79.17;99758.56;215931;1254;61349;-74
2023/04/26 01:33:32;;;;;;;;;;;;;;;6.88;78.83;99759.02;215689;1254;71575;-74
2023/04/26 01:38:25;;;;;;;;;;;;;;;6.79;78.48;99761.96;215719;1253;61308;-74
2023/04/26 01:43:20;;;;;;;;;;;;;;;6.73;78.30;99769.08;215860;1253;65480;-74
2023/04/26 01:48:12;;;;;;;;;;;;;;;6.66;78.20;99772.58;215798;1254;61218;-74
2023/04/26 01:53:05;;;;;;;;;;;;;;;6.59;78.02;99772.64;215870;1254;61477;-73
2023/04/26 01:57:58;;;;;;;;;;;;;;;6.55;78.27;99778.41;215758;1255;61409;-74
2023/04/26 02:02:54;;;;;;;;;;;;;;;6.50;78.28;99786.08;215907;1254;61451;-73
2023/04/26 02:07:48;;;;;;;;;;;;;;;6.41;78.20;99785.55;215803;1254;66910;-74
2023/04/26 02:12:41;;;;;;;;;;;;;;;6.31;78.41;99788.81;215804;1254;61233;-73
2023/04/26 02:17:33;;;;;;;;;;;;;;;6.26;78.52;99793.86;215957;1254;61413;-74
2023/04/26 02:22:26;;;;;;;;;;;;;;;6.15;78.34;99791.07;215772;1257;61603;-74
2023/04/26 02:27:19;;;;;;;;;;;;;;;6.08;78.54;99801.61;215832;1259;61266;-74
2023/04/26 02:32:13;;;;;;;;;;;;;;;6.05;78.61;99805.33;215887;1257;61356;-74
2023/04/26 02:37:06;;;;;;;;;;;;;;;6.02;78.67;99799.92;215821;1257;61382;-74
2023/04/26 02:41:59;;;;;;;;;;;;;;;5.96;78.66;99788.77;215798;1254;61281;-73
2023/04/26 02:46:52;;;;;;;;;;;;;;;5.89;78.67;99799.09;215727;1257;72411;-74
2023/04/26 02:51:45;;;;;;;;;;;;;;;5.84;78.57;99798.14;215790;1258;61324;-74
2023/04/26 02:56:37;;;;;;;;;;;;;;;5.82;78.75;99794.32;215787;1257;61286;-73
2023/04/26 03:01:30;;;;;;;;;;;;;;;5.83;79.02;99796.23;215842;1254;61263;-73
2023/04/26 03:06:24;;;;;;;;;;;;;;;5.88;79.17;99791.70;215882;1257;74732;-73
2023/04/26 03:11:16;;;;;;;;;;;;;;;5.92;79.15;99794.36;215962;1254;61381;-74
2023/04/26 03:16:09;;;;;;;;;;;;;;;5.93;79.01;99797.14;215880;1258;61247;-74
2023/04/26 03:21:02;;;;;;;;;;;;;;;5.93;79.18;99801.08;215756;1254;61321;-74
2023/04/26 03:25:55;;;;;;;;;;;;;;;5.97;79.31;99802.06;215843;1254;61212;-74
2023/04/26 03:30:49;;;;;;;;;;;;;;;6.00;79.39;99802.81;215823;1255;61356;-74
2023/04/26 03:35:43;;;;;;;;;;;;;;;6.00;79.21;99807.28;215761;1254;71925;-74
2023/04/26 03:40:37;;;;;;;;;;;;;;;6.02;79.59;99812.83;215810;1254;61382;-74
2023/04/26 03:45:30;;;;;;;;;;;;;;;6.07;79.70;99813.96;215618;1254;66897;-74
2023/04/26 03:50:23;;;;;;;;;;;;;;;6.09;79.67;99813.16;215787;1255;61237;-74
2023/04/26 03:55:16;;;;;;;;;;;;;;;6.11;79.85;99815.24;215787;1257;75417;-73
2023/04/26 04:00:10;;;;;;;;;;;;;;;6.13;79.79;99816.34;215792;1254;70336;-73
2023/04/26 04:05:06;;;;;;;;;;;;;;;6.17;79.80;99815.88;216006;1257;61274;-74
2023/04/26 04:10:01;;;;;;;;;;;;;;;6.22;79.95;99816.84;215783;1254;65928;-74
2023/04/26 04:14:54;;;;;;;;;;;;;;;6.25;79.68;99814.33;215850;1254;61260;-73
2023/04/26 04:19:49;;;;;;;;;;;;;;;6.26;79.63;99817.27;215913;1254;75812;-74
2023/04/26 04:24:43;;;;;;;;;;;;;;;6.28;79.27;99822.13;215714;1254;71653;-74
2023/04/26 04:29:36;;;;;;;;;;;;;;;6.25;79.03;99825.86;215800;1255;61246;-74
2023/04/26 04:34:29;;;;;;;;;;;;;;;6.26;78.83;99823.80;215906;1254;67015;-74
2023/04/26 04:39:23;;;;;;;;;;;;;;;6.30;78.34;99834.56;215842;1254;61214;-74
2023/04/26 04:44:25;;;;;;;;;;;;;;;6.32;77.89;99834.10;215830;1254;74361;-74
2023/04/26 04:49:36;;;;;;;;;;;;;;;6.31;77.69;99841.66;215748;1254;72036;-74
2023/04/26 04:54:33;;;;;;;;;;;;;;;6.37;77.50;99845.89;215722;1254;61289;-74
2023/04/26 04:59:36;;;;;;;;;;;;;;;6.43;77.16;99849.64;216199;1254;67100;-74
2023/04/26 05:04:38;;;;;;;;;;;;;;;6.51;76.93;99849.27;215816;1254;61522;-73
2023/04/26 05:09:32;;;;;;;;;;;;;;;6.60;76.62;99855.13;215679;1254;73047;-74
2023/04/26 05:14:25;;;;;;;;;;;;;;;6.67;76.07;99862.33;215953;1254;73779;-74
2023/04/26 05:19:18;;;;;;;;;;;;;;;6.71;75.44;99867.90;216004;1254;61332;-73
2023/04/26 05:24:11;;;;;;;;;;;;;;;6.70;74.98;99869.61;215899;1253;64850;-74
2023/04/26 05:29:05;;;;;;;;;;;;;;;6.72;74.84;99879.11;215867;1255;61318;-73
2023/04/26 05:34:21;;;;;;;;;;;;;;;6.79;75.13;99887.86;216200;1254;73290;-73
2023/04/26 05:39:20;;;;;;;;;;;;;;;6.86;74.90;99885.57;216065;1254;71391;-74
2023/04/26 05:44:13;;;;;;;;;;;;;;;7.00;74.57;99883.92;215877;1254;61205;-74
2023/04/26 05:49:06;;;;;;;;;;;;;;;7.12;74.32;99888.80;216282;1254;66845;-74
2023/04/26 05:53:59;;;;;;;;;;;;;;;7.21;73.94;99893.10;216179;1254;61257;-73
2023/04/26 05:58:53;;;;;;;;;;;;;;;7.32;73.76;99891.21;215997;1254;75412;-73
2023/04/26 06:03:46;;;;;;;;;;;;;;;7.44;73.31;99900.38;215795;1254;71843;-74
2023/04/26 06:08:43;;;;;;;;;;;;;;;7.54;72.53;99906.60;215877;1254;61321;-73
2023/04/26 06:13:36;;;;;;;;;;;;;;;7.63;71.88;99910.17;216295;1254;66739;-75
2023/04/26 06:18:30;;;;;;;;;;;;;;;7.85;71.55;99914.30;218027;1254;60227;-74
2023/04/26 06:23:22;;;;;;;;;;;;;;;8.36;70.26;99915.05;215975;1257;61298;-73
2023/04/26 06:28:15;;;;;;;;;;;;;;;8.51;70.02;99908.67;215944;1254;61349;-72
2023/04/26 06:33:09;;;;;;;;;;;;;;;8.29;69.70;99912.17;215678;1254;61353;-72
2023/04/26 06:38:03;;;;;;;;;;;;;;;8.40;69.32;99909.90;215783;1254;64558;-72
2023/04/26 06:42:56;;;;;;;;;;;;;;;9.56;68.33;99905.58;215780;1257;61277;-72
2023/04/26 06:48:12;;;;;;;;;;;;;;;10.96;66.24;99905.48;215680;1254;74246;-72
2023/04/26 06:53:05;;;;;;;;;;;;;;;12.48;64.21;99898.80;216182;1254;73675;-73
2023/04/26 06:57:58;;;;;;;;;;;;;;;14.20;60.91;99891.95;216102;1253;61259;-74
2023/04/26 07:02:51;;;;;;;;;;;;;;;14.78;59.49;99885.75;216338;1254;61278;-72
2023/04/26 07:07:45;;;;;;;;;;;;;;;15.07;58.80;99891.64;216032;1257;61244;-73
2023/04/26 07:12:39;;;;;;;;;;;;;;;15.61;58.10;99892.54;215785;1254;75772;-73
2023/04/26 07:17:31;;;;;;;;;;;;;;;15.49;57.18;99896.74;215872;1254;61266;-73
2023/04/26 07:22:24;;;;;;;;;;;;;;;15.45;55.37;99900.34;215885;1254;61337;-73
2023/04/26 07:27:17;;;;;;;;;;;;;;;16.24;53.10;99900.84;215733;1257;61716;-72
2023/04/26 07:32:10;;;;;;;;;;;;;;;16.97;52.12;99902.37;216056;1254;61198;-73
2023/04/26 07:37:03;;;;;;;;;;;;;;;18.88;50.15;99897.78;215699;1257;61347;-73
2023/04/26 07:41:56;;;;;;;;;;;;;;;17.54;51.49;99910.50;215834;1253;61355;-73
2023/04/26 07:46:49;;;;;;;;;;;;;;;18.56;50.12;99905.87;215717;1253;61275;-74
2023/04/26 07:51:44;;;;;;;;;;;;;;;19.57;46.63;99909.34;215762;1253;65754;-73
2023/04/26 07:56:37;;;;;;;;;;;;;;;20.68;44.50;99913.89;215702;1254;61276;-74
2023/04/26 08:01:30;;;;;;;;;;;;;;;18.98;44.67;99925.27;215772;1254;61348;-74
2023/04/26 08:06:23;;;;;;;;;;;;;;;19.48;44.03;99925.05;215789;1253;61288;-73
2023/04/26 08:11:17;;;;;;;;;;;;;;;18.90;43.82;99918.96;215853;1254;61331;-74
2023/04/26 08:16:09;;;;;;;;;;;;;;;16.97;45.52;99929.61;216015;1254;67994;-72
2023/04/26 08:21:02;;;;;;;;;;;;;;;15.18;46.62;99937.20;215720;1254;61340;-73
2023/04/26 08:25:56;;;;;;;;;;;;;;;14.63;47.54;99937.35;215581;1254;61256;-74
2023/04/26 08:30:49;;;;;;;;;;;;;;;14.54;47.50;99936.44;215499;1253;72461;-73
2023/04/26 08:47:26;;;;;;;4.00;2.00;;;;;;;13.15;48.49;99952.75;211288;1280;614118;-72
2023/04/26 08:52:22;;;;;;;8.10;2.60;;;;;;;12.80;49.21;99963.69;214602;1265;59262;-72
2023/04/26 08:57:15;;;;;;;5.50;2.40;;;;;;;14.64;47.24;99952.34;214592;1263;66683;-73
2023/04/26 09:02:10;;;;;;;5.40;3.20;;;;;;;14.51;46.81;99956.36;214421;1265;59272;-73
2023/04/26 09:07:05;;;;;;;4.00;2.40;;;;;;;13.29;48.21;99966.96;216102;1253;73101;-72
2023/04/26 09:12:01;;;;;;;5.80;2.20;;;;;;;12.51;48.90;99972.00;216147;1253;72298;-73
2023/04/26 09:16:55;;;;;;;7.50;2.20;;;;;;;12.08;49.36;99979.73;215968;1252;60099;-73
2023/04/26 09:21:48;;;;;;;6.40;2.70;;;;;;;11.73;49.97;99986.13;215913;1253;67030;-73
2023/04/26 09:26:41;;;;;;;3.30;1.70;;;;;;;11.19;50.48;99987.77;215975;1253;59346;-72
2023/04/26 09:31:43;;;;;;;8.30;2.60;;;;;;;10.69;50.83;99993.83;216048;1254;73044;-72
2023/04/26 09:36:55;;;;;;;4.50;1.90;;;;;;;10.53;51.65;99993.05;216130;1253;73691;-71
2023/04/26 09:41:48;;;;;;;6.00;2.20;;;;;;;10.43;51.35;99997.48;216086;1253;59704;-73
2023/04/26 09:46:42;;;;;;;5.90;2.50;;;;;;;10.54;51.74;99991.50;215828;1254;60117;-73
2023/04/26 09:51:35;;;;;;;4.60;2.30;;;;;;;10.62;51.62;99988.59;215870;1254;59685;-74
2023/04/26 09:56:28;;;;;;;5.70;2.60;;;;;;;10.32;51.67;99998.79;215983;1254;59997;-72
2023/04/26 10:01:20;;;;;;;5.30;2.30;;;;;;;9.94;50.89;100003.00;215839;1253;59721;-73
2023/04/26 10:06:13;;;;;;;5.40;2.00;;;;;;;9.76;51.37;100005.28;216040;1256;59604;-72
2023/04/26 10:11:09;;;;;;;5.50;1.90;;;;;;;9.93;51.64;100002.83;215955;1254;69627;-73
2023/04/26 10:16:03;;;;;;;5.10;1.50;;;;;;;10.70;50.17;100001.53;215846;1256;60005;-73
2023/04/26 10:21:00;;;;;;;4.90;2.40;;;;;;;11.64;48.68;99997.41;215887;1253;71783;-73
2023/04/26 10:25:55;;;;;;;5.30;2.10;;;;;;;11.06;48.74;100004.55;215757;1255;72233;-72
2023/04/26 10:30:56;;;;;;;3.80;1.40;;;;;;;10.48;48.87;100015.71;215727;1256;60756;-72
2023/04/26 10:36:12;;;;;;;3.70;1.70;;;;;;;10.26;49.01;100020.23;215809;1255;64746;-71
2023/04/26 10:41:29;;;;;;;6.40;1.50;;;;;;;10.65;48.40;100013.20;215732;1255;59638;-71
2023/04/26 10:46:36;;;;;;;1.30;1.10;;;;;;;12.18;47.16;100008.54;215671;1255;72175;-72
2023/04/26 10:51:30;;;;;;;;;;;;;;;12.17;46.88;100014.11;215816;1254;73736;-72
2023/04/26 10:56:23;;;;;;;3.10;1.80;;;;;;;11.46;47.07;100015.26;215797;1255;60049;-72
2023/04/26 11:01:19;;;;;;;2.90;1.70;;;;;;;10.99;48.05;100026.03;215666;1254;60214;-73
2023/04/26 11:06:14;;;;;;;6.20;1.70;;;;;;;11.17;48.00;100023.66;215570;1255;59780;-74
2023/04/26 11:11:12;;;;;;;3.10;1.50;;;;;;;11.30;47.62;100019.55;215738;1255;72810;-72
2023/04/26 11:16:15;;;;;;;3.00;1.60;;;;;;;11.06;47.71;100022.43;215564;1254;71673;-73
2023/04/26 11:21:10;;;;;;;3.80;2.10;;;;;;;10.73;47.80;100033.37;215849;1254;59644;-73
2023/04/26 11:26:08;;;;;;;4.00;1.70;;;;;;;10.45;47.63;100047.23;215664;1254;65096;-73
2023/04/26 11:31:02;;;;;;;4.00;1.40;;;;;;;10.39;47.59;100051.52;215539;1255;59718;-73
2023/04/26 11:35:58;;;;;;;6.60;1.70;;;;;;;10.45;48.01;100051.73;215642;1255;72466;-72
2023/04/26 11:41:03;;;;;;;3.70;1.90;;;;;;;11.00;47.76;100053.60;215672;1254;73596;-73
2023/04/26 11:46:02;;;;;;;5.00;2.10;;;;;;;11.40;47.14;100048.57;215703;1254;60172;-75
2023/04/26 11:50:57;;;;;;;6.30;3.00;;;;;;;11.03;46.32;100057.27;215693;1255;67467;-75
2023/04/26 11:55:51;;;;;;;7.30;2.30;;;;;;;10.47;46.98;100070.46;215693;1257;59753;-75
2023/04/26 12:01:01;;;;;;;6.70;2.20;;;;;;;10.16;47.03;100071.58;215706;1258;71422;-76
2023/04/26 12:05:55;;;;;;;3.80;1.80;;;;;;;10.04;46.48;100076.68;215799;1254;72623;-75
2023/04/26 12:10:48;;;;;;;3.40;1.90;;;;;;;10.61;46.80;100070.67;215810;1256;61082;-76
2023/04/26 12:15:40;;;;;;;4.60;1.90;;;;;;;12.56;47.30;100060.25;215576;1254;59977;-75
2023/04/26 12:20:35;;;;;;;4.90;2.30;;;;;;;13.73;45.44;100059.70;215647;1255;59742;-73
2023/04/26 12:25:29;;;;;;;3.10;1.80;;;;;;;13.68;43.96;100063.39;215755;1254;72534;-72
2023/04/26 12:30:22;;;;;;;3.30;1.50;;;;;;;13.05;44.08;100073.04;215754;1254;72678;-72
2023/04/26 12:35:26;;;;;;;6.50;1.80;;;;;;;12.35;44.23;100075.79;215647;1254;59661;-73
2023/04/26 12:40:23;;;;;;;8.40;1.90;;;;;;;11.64;44.12;100085.77;215574;1256;65642;-72
2023/04/26 12:45:18;;;;;;;6.20;2.10;;;;;;;11.20;44.89;100093.08;215974;1255;59679;-72
2023/04/26 12:50:12;;;;;;;4.70;1.70;;;;;;;11.05;44.88;100095.77;215580;1255;72927;-72
2023/04/26 12:55:08;;;;;;;3.80;1.90;;;;;;;11.31;45.71;100095.73;215820;1254;72878;-73
2023/04/26 13:00:01;;;;;;;8.90;2.00;;;;;;;11.51;45.27;100094.58;215537;1254;60316;-73
2023/04/26 13:04:55;;;;;;;6.00;1.80;;;;;;;11.13;44.66;100104.32;215669;1255;59652;-72
2023/04/26 13:09:48;;;;;;;3.20;2.10;;;;;;;10.58;45.01;100111.79;215600;1256;59669;-72
2023/04/26 13:14:41;;;;;;;5.50;2.40;;;;;;;10.16;45.46;100112.29;215642;1254;59672;-72
2023/04/26 13:19:35;;;;;;;2.40;2.00;;;;;;;10.09;45.93;100116.38;215637;1254;73547;-73
2023/04/26 13:24:28;;;;;;;4.20;1.70;;;;;;;10.32;45.47;100118.16;216156;1254;59729;-72
2023/04/26 13:29:21;;;;;;;2.60;1.80;;;;;;;10.60;44.71;100116.99;215675;1254;59703;-72
2023/04/26 13:34:14;;;;;;;4.40;1.90;;;;;;;10.59;44.55;100120.45;215522;1254;59703;-71
2023/04/26 13:39:07;;;;;;;3.90;2.00;;;;;;;10.33;44.92;100123.36;215688;1257;59728;-71
2023/04/26 13:44:00;;;;;;;13.80;6.60;;;;;;;10.05;45.42;100132.44;215545;1254;59689;-72
2023/04/26 13:48:53;;;;;;;9.50;3.90;;;;;;;9.97;45.76;100137.55;215655;1257;59997;-71
2023/04/26 13:53:47;;;;;;;3.40;1.90;;;;;;;9.98;45.93;100142.06;215669;1255;66987;-72
2023/04/26 13:58:42;;;;;;;4.20;2.00;;;;;;;10.63;46.01;100141.95;215705;1255;59648;-71
2023/04/26 14:03:35;;;;;;;4.40;1.80;;;;;;;11.20;45.06;100147.37;215705;1257;72777;-72
2023/04/26 14:08:28;;;;;;;4.30;1.70;;;;;;;11.07;44.49;100150.42;215720;1255;71614;-71
2023/04/26 14:13:21;;;;;;;3.70;2.30;;;;;;;10.68;44.35;100153.80;215645;1257;60575;-74
2023/04/26 14:18:14;;;;;;;3.90;2.10;;;;;;;10.34;44.47;100163.38;215697;1256;59666;-73
2023/04/26 14:23:07;;;;;;;7.70;2.80;;;;;;;10.17;44.84;100164.42;215700;1253;59731;-73
2023/04/26 14:28:02;;;;;;;6.30;2.10;;;;;;;10.19;44.72;100168.27;215717;1255;59661;-73
2023/04/26 14:32:55;;;;;;;7.20;2.40;;;;;;;10.23;44.72;100169.16;215723;1254;72453;-75
2023/04/26 14:37:47;;;;;;;4.80;1.70;;;;;;;10.37;45.06;100178.48;215599;1254;59796;-73
2023/04/26 14:42:44;;;;;;;3.70;1.70;;;;;;;10.37;45.01;100178.84;215669;1254;59634;-73
2023/04/26 14:47:38;;;;;;;;;;;;;;;10.38;44.91;100183.35;215737;1254;60209;-74
2023/04/26 14:52:35;;;;;;;4.60;2.00;;;;;;;10.30;44.65;100185.34;215644;1254;72943;-74
2023/04/26 14:57:27;;;;;;;5.60;1.80;;;;;;;10.10;44.77;100184.95;215636;1255;73701;-74
2023/04/26 15:02:20;;;;;;;7.60;3.80;;;;;;;9.90;45.26;100188.72;215575;1254;59763;-74
2023/04/26 15:07:14;;;;;;;5.70;2.80;;;;;;;9.75;45.63;100198.94;215608;1255;59893;-74
2023/04/26 15:12:23;;;;;;;5.90;2.80;;;;;;;9.62;46.24;100202.24;215749;1254;59730;-74
2023/04/26 15:17:16;;;;;;;4.60;2.30;;;;;;;9.60;46.51;100205.84;215639;1255;59817;-75
2023/04/26 15:22:08;;;;;;;5.50;2.20;;;;;;;9.68;46.48;100209.41;215681;1254;59739;-75
2023/04/26 15:27:03;;;;;;;3.40;2.20;;;;;;;9.62;45.97;100211.75;215862;1254;59725;-75
2023/04/26 15:31:56;;;;;;;3.80;2.00;;;;;;;9.49;45.73;100214.88;215696;1254;68006;-74
2023/04/26 15:36:49;;;;;;;5.20;1.90;;;;;;;9.46;46.19;100213.45;215738;1254;61164;-75
2023/04/26 15:41:43;;;;;;;7.10;3.10;;;;;;;9.58;46.51;100216.03;215796;1255;73077;-74
2023/04/26 15:46:37;;;;;;;7.00;2.50;;;;;;;9.57;46.86;100217.92;215786;1254;72766;-74
2023/04/26 15:51:29;;;;;;;5.40;3.10;;;;;;;9.53;47.01;100216.31;215637;1254;60341;-74
2023/04/26 15:56:22;;;;;;;3.20;2.10;;;;;;;9.52;47.56;100214.06;215716;1255;59780;-74
2023/04/26 16:01:15;;;;;;;4.90;2.60;;;;;;;9.48;47.54;100215.73;215698;1254;59720;-75
2023/04/26 16:06:08;;;;;;;6.40;2.60;;;;;;;9.34;47.72;100218.64;215675;1255;59679;-75
2023/04/26 16:11:02;;;;;;;6.10;2.40;;;;;;;9.23;47.86;100222.29;215610;1255;59789;-75
2023/04/26 16:15:55;;;;;;;4.90;2.20;;;;;;;9.18;48.34;100225.85;215739;1254;59663;-75
2023/04/26 16:20:50;;;;;;;3.70;2.50;;;;;;;9.07;47.99;100227.59;215666;1254;66123;-75
2023/04/26 16:25:44;;;;;;;4.30;1.90;;;;;;;8.95;47.65;100231.05;215675;1254;59657;-74
2023/04/26 16:30:37;;;;;;;6.90;2.50;;;;;;;8.81;47.26;100237.04;215782;1255;73933;-75
2023/04/26 16:35:30;;;;;;;5.60;2.10;;;;;;;8.70;47.65;100244.12;215725;1254;72808;-74
2023/04/26 16:40:23;;;;;;;2.90;2.00;;;;;;;8.59;47.95;100247.38;215641;1257;59626;-74
2023/04/26 16:45:16;;;;;;;3.50;1.90;;;;;;;8.51;47.94;100253.96;215727;1256;65826;-74
2023/04/26 16:50:09;;;;;;;5.20;2.00;;;;;;;8.44;48.02;100258.33;215692;1257;59737;-74
2023/04/26 16:55:02;;;;;;;2.70;1.70;;;;;;;8.39;48.29;100262.88;215659;1257;59649;-74
2023/04/26 16:59:55;;;;;;;3.60;1.90;;;;;;;8.34;48.79;100268.15;215531;1255;71399;-74
2023/04/26 17:04:48;;;;;;;5.00;2.50;;;;;;;8.32;48.96;100269.48;215535;1255;60455;-74
2023/04/26 17:09:41;;;;;;;4.60;2.30;;;;;;;8.27;48.95;100267.66;215486;1255;64694;-74
2023/04/26 17:14:34;;;;;;;7.10;2.80;;;;;;;8.22;49.03;100275.00;215604;1255;60763;-74
2023/04/26 17:19:27;;;;;;;4.40;2.00;;;;;;;8.18;49.18;100280.08;215532;1259;60468;-74
2023/04/26 17:24:20;;;;;;;4.20;2.40;;;;;;;8.11;49.38;100282.88;215526;1255;60529;-74
2023/04/26 17:29:13;;;;;;;7.50;3.10;;;;;;;8.04;49.77;100288.96;215592;1258;60792;-74
2023/04/26 17:34:06;;;;;;;5.60;2.40;;;;;;;7.97;49.80;100293.48;215672;1256;66657;-75
2023/04/26 17:38:58;;;;;;;4.40;2.40;;;;;;;7.93;50.12;100294.61;215646;1255;60386;-74
2023/04/26 17:43:51;;;;;;;6.30;2.70;;;;;;;7.91;50.80;100290.41;215351;1255;60551;-73
2023/04/26 17:48:44;;;;;;;4.20;2.70;;;;;;;7.84;50.85;100293.03;215475;1258;60481;-73
2023/04/26 17:53:37;;;;;;;4.80;2.60;;;;;;;7.79;51.59;100300.53;215577;1258;60493;-73
2023/04/26 17:58:30;;;;;;;5.20;2.60;;;;;;;7.67;51.65;100310.27;215565;1255;60482;-73
2023/04/26 18:03:22;;;;;;;6.10;2.50;;;;;;;7.57;52.06;100312.11;215649;1254;60526;-74
2023/04/26 18:08:16;;;;;;;7.00;4.40;;;;;;;7.49;52.01;100318.31;215551;1258;60524;-74
2023/04/26 18:13:09;;;;;;;9.50;4.20;;;;;;;7.45;52.22;100325.46;215593;1254;60972;-73
2023/04/26 18:18:04;;;;;;;7.30;2.70;;;;;;;7.42;52.60;100329.00;215617;1255;60431;-75
2023/04/26 18:22:57;;;;;;;7.70;3.60;;;;;;;7.36;53.02;100331.64;216769;1254;65952;-75
2023/04/26 18:27:50;;;;;;;5.30;3.30;;;;;;;7.33;53.47;100334.65;215800;1256;60474;-74
2023/04/26 18:32:42;;;;;;;6.00;3.00;;;;;;;7.27;53.49;100336.41;215639;1255;60526;-75
2023/04/26 18:37:36;;;;;;;5.60;3.10;;;;;;;7.23;53.88;100340.98;215664;1255;60448;-75
2023/04/26 18:42:29;;;;;;;6.20;3.50;;;;;;;7.21;53.87;100341.63;215515;1256;60474;-75
2023/04/26 18:47:22;;;;;;;5.20;3.50;;;;;;;7.21;54.04;100344.20;215629;1255;60531;-74
2023/04/26 18:52:15;;;;;;;5.80;2.90;;;;;;;7.23;53.98;100349.94;215532;1260;60452;-75
2023/04/26 18:57:09;;;;;;;5.80;3.20;;;;;;;7.25;53.88;100357.41;215579;1259;60412;-74
2023/04/26 19:02:03;;;;;;;5.20;3.50;;;;;;;7.22;53.98;100358.36;215526;1256;72597;-74
2023/04/26 19:06:56;;;;;;;8.20;3.30;;;;;;;7.20;53.87;100366.93;215686;1254;60429;-75
2023/04/26 19:11:49;;;;;;;6.70;3.50;;;;;;;7.19;53.87;100366.73;215540;1256;65788;-75
2023/04/26 19:16:42;;;;;;;8.40;3.70;;;;;;;7.18;53.99;100366.36;215736;1256;60445;-75
2023/04/26 19:21:35;;;;;;;6.40;3.20;;;;;;;7.14;54.17;100369.38;215747;1256;72799;-75
2023/04/26 19:26:28;;;;;;;9.70;3.80;;;;;;;7.10;54.67;100372.35;215662;1259;60480;-72
2023/04/26 19:31:21;;;;;;;9.30;3.30;;;;;;;7.01;54.71;100378.87;215638;1256;60484;-71
2023/04/26 19:36:13;;;;;;;9.40;3.40;;;;;;;6.91;55.02;100377.73;215633;1256;60475;-72
2023/04/26 19:41:06;;;;;;;7.90;3.90;;;;;;;6.82;55.06;100385.77;215420;1258;60451;-72
2023/04/26 19:45:59;;;;;;;6.00;3.50;;;;;;;6.72;55.51;100387.72;215773;1258;60460;-75
2023/04/26 19:50:52;;;;;;;6.50;3.60;;;;;;;6.61;55.94;100390.71;215525;1256;60440;-74
2023/04/26 19:55:45;;;;;;;7.10;3.50;;;;;;;6.46;56.16;100392.01;215577;1255;60548;-75
2023/04/26 20:00:39;;;;;;;9.00;3.90;;;;;;;6.28;56.48;100389.94;215657;1254;60559;-75
2023/04/26 20:05:32;;;;;;;6.60;3.40;;;;;;;6.08;56.76;100392.64;215181;1256;60520;-74
2023/04/26 20:10:25;;;;;;;6.30;3.00;;;;;;;5.91;57.12;100390.73;215443;1254;73854;-74
2023/04/26 20:15:18;;;;;;;7.40;4.10;;;;;;;5.71;57.65;100389.74;215760;1254;60464;-75
2023/04/26 20:20:12;;;;;;;10.20;5.50;;;;;;;5.49;58.09;100395.73;215242;1258;61042;-74
2023/04/26 20:25:06;;;;;;;9.60;5.50;;;;;;;5.28;58.47;100395.75;215253;1254;66501;-75
2023/04/26 20:29:59;;;;;;;13.20;5.60;;;;;;;5.08;58.78;100403.17;215448;1254;60542;-74
2023/04/26 20:34:51;;;;;;;13.80;7.50;;;;;;;4.90;59.14;100408.05;215454;1256;73843;-74
2023/04/26 20:39:44;;;;;;;17.80;10.10;;;;;;;4.76;59.57;100414.42;215512;1254;60456;-74
2023/04/26 20:44:37;;;;;;;19.30;11.00;;;;;;;4.62;59.90;100416.48;215504;1256;60522;-74
2023/04/26 20:49:30;;;;;;;20.50;9.70;;;;;;;4.42;60.14;100414.06;215573;1256;127398;-74
2023/04/26 20:54:22;;;;;;;17.10;8.60;;;;;;;4.26;60.61;100415.52;215774;1255;60888;-75
2023/04/26 20:59:15;;;;;;;13.90;8.80;;;;;;;4.12;61.19;100414.30;215566;1255;61015;-75
2023/04/26 21:04:08;;;;;;;17.10;8.10;;;;;;;3.99;61.64;100415.85;215329;1255;60439;-74
2023/04/26 21:09:01;;;;;;;20.10;7.30;;;;;;;3.91;61.48;100417.97;215654;1258;60498;-74
2023/04/26 21:13:53;;;;;;;13.50;8.70;;;;;;;3.80;61.84;100424.73;216793;1256;60515;-74
2023/04/26 21:18:46;;;;;;;14.20;8.00;;;;;;;3.65;61.98;100431.53;216203;1258;60483;-75
2023/04/26 21:23:39;;;;;;;11.70;7.50;;;;;;;3.52;62.01;100437.66;216566;1254;60483;-75
2023/04/26 21:28:32;;;;;;;11.20;7.50;;;;;;;3.44;62.63;100438.89;216901;1254;60546;-75
2023/04/26 21:33:25;;;;;;;11.80;7.50;;;;;;;3.36;63.16;100443.02;215640;1254;60543;-74
2023/04/26 21:38:17;;;;;;;12.20;7.00;;;;;;;3.27;62.97;100449.67;215653;1258;61205;-74
2023/04/26 21:43:10;;;;;;;15.60;7.50;;;;;;;3.17;63.27;100451.48;215724;1258;60870;-76
2023/04/26 21:48:04;;;;;;;13.10;7.60;;;;;;;3.07;63.58;100458.59;215593;1258;65746;-74
2023/04/26 21:52:57;;;;;;;11.40;7.20;;;;;;;3.00;63.56;100464.77;215505;1256;60416;-74
2023/04/26 21:57:50;;;;;;;11.00;6.30;;;;;;;2.89;63.80;100471.31;215671;1256;60973;-73
2023/04/26 22:02:42;;;;;;;12.30;7.30;;;;;;;2.76;64.08;100475.02;215578;1254;60419;-74
2023/04/26 22:07:36;;;;;;;13.20;8.20;;;;;;;2.70;64.39;100480.91;215592;1259;61980;-74
2023/04/26 22:12:30;;;;;;;14.60;7.40;;;;;;;2.65;64.73;100484.27;215691;1255;60448;-74
2023/04/26 22:17:22;;;;;;;11.90;7.10;;;;;;;2.54;64.64;100487.23;215700;1258;60530;-74
2023/04/26 22:22:16;;;;;;;12.80;7.60;;;;;;;2.51;64.86;100492.04;215617;1260;60452;-75
2023/04/26 22:27:08;;;;;;;11.80;7.00;;;;;;;2.46;65.09;100495.61;215449;1259;71853;-74
2023/04/26 22:32:01;;;;;;;11.50;8.10;;;;;;;2.38;65.22;100494.88;215494;1254;60540;-75
2023/04/26 22:36:54;;;;;;;12.60;7.50;;;;;;;2.29;65.13;100498.92;215604;1254;60559;-74
2023/04/26 22:41:55;;;;;;;11.80;8.20;;;;;;;2.17;65.67;100500.59;215467;1254;60472;-75
2023/04/26 22:46:47;;;;;;;13.70;8.80;;;;;;;2.09;65.47;100504.13;215562;1260;60550;-74
2023/04/26 22:51:41;;;;;;;11.20;7.60;;;;;;;2.03;65.61;100508.78;215476;1254;60493;-75
2023/04/26 22:56:42;;;;;;;10.60;7.40;;;;;;;1.96;65.65;100512.88;215350;1260;60431;-74
2023/04/26 23:01:35;;;;;;;13.10;7.90;;;;;;;1.84;65.75;100516.45;215528;1254;65760;-75
2023/04/26 23:06:28;;;;;;;12.00;7.10;;;;;;;1.77;66.28;100532.83;215598;1254;60555;-74
2023/04/26 23:11:21;;;;;;;12.00;7.60;;;;;;;1.72;66.03;100536.86;215765;1254;62540;-74
2023/04/26 23:16:15;;;;;;;13.50;8.30;;;;;;;1.67;66.32;100540.19;215476;1255;71585;-74
2023/04/26 23:21:08;;;;;;;12.50;8.30;;;;;;;1.61;66.46;100544.35;215636;1254;60615;-74
2023/04/26 23:26:04;;;;;;;12.90;7.00;;;;;;;1.53;66.45;100545.13;215757;1257;68365;-74
2023/04/26 23:30:59;;;;;;;10.60;7.90;;;;;;;1.45;66.60;100550.39;215652;1259;60463;-74
2023/04/26 23:35:56;;;;;;;11.30;8.50;;;;;;;1.41;67.06;100548.84;215767;1257;60447;-74
2023/04/26 23:40:48;;;;;;;11.20;8.30;;;;;;;1.38;66.99;100554.95;215747;1254;72585;-74
2023/04/26 23:45:45;;;;;;;12.60;9.00;;;;;;;1.34;67.00;100556.32;215771;1254;60486;-75